createdAt,value
2023-05-14T00:01:41.590Z,1.98
2023-05-14T00:04:08.679Z,1.98
2023-05-14T00:06:35.897Z,2.42
2023-05-14T00:09:04.363Z,2.15
2023-05-14T00:11:31.435Z,2.10
2023-05-14T00:13:58.388Z,1.80
2023-05-14T00:16:25.734Z,1.88
2023-05-14T00:18:52.867Z,1.95
2023-05-14T00:21:20.681Z,2.50
2023-05-14T00:23:47.686Z,1.83
2023-05-14T00:26:14.825Z,1.83
2023-05-14T00:28:45.266Z,1.58
2023-05-14T00:31:12.331Z,1.80
2023-05-14T00:33:39.331Z,1.63
2023-05-14T00:36:06.738Z,1.92
2023-05-14T00:38:34.460Z,1.60
2023-05-14T00:41:01.493Z,1.77
2023-05-14T00:43:28.584Z,1.67
2023-05-14T00:45:56.145Z,1.60
2023-05-14T00:48:24.496Z,1.80
2023-05-14T00:50:52.048Z,1.60
2023-05-14T00:53:20.715Z,2.05
2023-05-14T00:55:49.541Z,2.58
2023-05-14T00:58:17.842Z,1.75
2023-05-14T01:00:45.528Z,2.20
2023-05-14T01:03:12.747Z,2.15
2023-05-14T01:05:51.813Z,2.00
2023-05-14T01:08:44.971Z,1.48
2023-05-14T01:11:19.333Z,2.42
2023-05-14T01:13:59.649Z,1.58
2023-05-14T01:16:28.357Z,2.17
2023-05-14T01:18:57.886Z,1.92
2023-05-14T01:21:36.887Z,1.85
2023-05-14T01:24:04.568Z,3.20
2023-05-14T01:26:31.822Z,2.78
2023-05-14T01:29:24.873Z,2.22
2023-05-14T01:31:55.664Z,1.75
2023-05-14T01:34:26.415Z,1.73
2023-05-14T01:36:53.893Z,1.67
2023-05-14T01:39:22.341Z,1.65
2023-05-14T01:41:50.196Z,1.90
2023-05-14T01:44:18.443Z,1.60
2023-05-14T01:46:45.539Z,1.65
2023-05-14T01:49:12.976Z,2.90
2023-05-14T01:51:40.003Z,2.05
2023-05-14T01:54:07.258Z,1.95
2023-05-14T01:56:34.350Z,1.92
2023-05-14T01:59:01.503Z,1.50
2023-05-14T02:01:28.638Z,2.00
2023-05-14T02:03:55.878Z,1.45
2023-05-14T02:06:22.945Z,1.42
2023-05-14T02:08:49.969Z,2.13
2023-05-14T02:11:17.129Z,2.08
2023-05-14T02:13:44.307Z,1.85
2023-05-14T02:16:11.513Z,4.95
2023-05-14T02:18:38.607Z,2.47
2023-05-14T02:21:05.921Z,2.03
2023-05-14T02:23:40.975Z,2.28
2023-05-14T02:26:12.672Z,2.28
2023-05-14T02:28:39.784Z,1.92
2023-05-14T02:31:06.868Z,1.75
2023-05-14T02:33:34.097Z,1.95
2023-05-14T02:36:01.149Z,2.20
2023-05-14T02:38:28.221Z,2.97
2023-05-14T02:40:56.755Z,2.70
2023-05-14T02:43:23.898Z,2.38
2023-05-14T02:45:52.329Z,2.95
2023-05-14T02:48:19.369Z,2.38
2023-05-14T02:50:46.987Z,2.40
2023-05-14T02:53:14.116Z,3.58
2023-05-14T02:55:41.448Z,2.72
2023-05-14T02:58:08.562Z,2.35
2023-05-14T03:00:36.273Z,3.33
2023-05-14T03:03:04.166Z,2.40
2023-05-14T03:05:31.690Z,3.25
2023-05-14T03:07:58.842Z,2.22
2023-05-14T03:10:26.114Z,1.85
2023-05-14T03:12:53.563Z,3.00
2023-05-14T03:15:20.640Z,2.38
2023-05-14T03:17:47.709Z,2.38
2023-05-14T03:20:14.849Z,3.22
2023-05-14T03:22:42.026Z,1.70
2023-05-14T03:25:09.344Z,2.63
2023-05-14T03:27:36.426Z,2.45
2023-05-14T03:30:04.214Z,2.85
2023-05-14T03:32:31.692Z,3.20
2023-05-14T03:34:58.704Z,1.90
2023-05-14T03:37:25.806Z,2.08
2023-05-14T03:39:52.831Z,2.08
2023-05-14T03:42:19.854Z,2.08
2023-05-14T03:44:47.954Z,2.65
2023-05-14T03:47:15.001Z,1.80
2023-05-14T03:49:42.030Z,2.55
2023-05-14T03:52:11.176Z,1.92
2023-05-14T03:54:38.716Z,1.65
2023-05-14T03:57:05.970Z,2.42
2023-05-14T03:59:32.965Z,2.10
2023-05-14T04:02:00.011Z,1.67
2023-05-14T04:04:27.056Z,1.55
2023-05-14T04:06:54.170Z,2.95
2023-05-14T04:09:21.171Z,2.60
2023-05-14T04:11:48.181Z,2.08
2023-05-14T04:14:15.432Z,2.00
2023-05-14T04:16:43.449Z,1.85
2023-05-14T04:19:11.435Z,1.48
2023-05-14T04:21:38.958Z,1.70
2023-05-14T04:24:06.368Z,1.65
2023-05-14T04:26:33.625Z,1.75
2023-05-14T04:29:03.136Z,1.77
2023-05-14T04:31:31.747Z,1.80
2023-05-14T04:33:58.849Z,1.30
2023-05-14T04:36:25.907Z,1.38
2023-05-14T04:38:52.929Z,1.30
2023-05-14T04:41:19.933Z,1.30
2023-05-14T04:43:49.460Z,1.70
2023-05-14T04:46:16.712Z,1.73
2023-05-14T04:48:43.761Z,1.60
2023-05-14T04:51:10.794Z,2.67
2023-05-14T04:53:37.775Z,2.05
2023-05-14T04:56:04.869Z,2.28
2023-05-14T04:58:34.525Z,2.20
2023-05-14T05:01:03.316Z,2.35
2023-05-14T05:03:31.209Z,1.88
2023-05-14T05:05:58.266Z,2.35
2023-05-14T05:08:26.802Z,1.80
2023-05-14T05:10:53.806Z,2.38
2023-05-14T05:13:20.776Z,1.50
2023-05-14T05:15:47.893Z,1.67
2023-05-14T05:18:14.955Z,1.80
2023-05-14T05:20:41.992Z,2.05
2023-05-14T05:23:09.023Z,1.60
2023-05-14T05:25:36.301Z,2.08
2023-05-14T05:28:03.310Z,1.40
2023-05-14T05:30:30.490Z,1.70
2023-05-14T05:32:57.787Z,1.30
2023-05-14T05:35:25.004Z,1.35
2023-05-14T05:37:51.991Z,1.98
2023-05-14T05:40:19.163Z,1.77
2023-05-14T05:42:46.143Z,1.90
2023-05-14T05:45:13.182Z,1.20
2023-05-14T05:47:40.248Z,1.58
2023-05-14T05:50:07.997Z,1.30
2023-05-14T05:52:35.028Z,1.20
2023-05-14T05:55:02.092Z,1.30
2023-05-14T05:57:29.121Z,1.48
2023-05-14T05:59:56.230Z,1.40
2023-05-14T06:02:23.311Z,1.70
2023-05-14T06:04:50.587Z,1.40
2023-05-14T06:07:17.584Z,1.67
2023-05-14T06:09:44.601Z,1.88
2023-05-14T06:12:11.560Z,1.92
2023-05-14T06:14:38.699Z,2.13
2023-05-14T06:17:05.782Z,1.63
2023-05-14T06:19:32.795Z,1.55
2023-05-14T06:21:59.779Z,1.30
2023-05-14T06:24:26.766Z,1.50
2023-05-14T06:26:53.747Z,1.50
2023-05-14T06:29:21.047Z,1.45
2023-05-14T06:31:48.542Z,2.00
2023-05-14T06:34:15.552Z,1.50
2023-05-14T06:36:42.575Z,1.83
2023-05-14T06:39:09.986Z,1.83
2023-05-14T06:41:36.949Z,1.60
2023-05-14T06:44:04.103Z,2.28
2023-05-14T06:46:31.065Z,1.45
2023-05-14T06:48:59.554Z,1.48
2023-05-14T06:51:26.734Z,1.40
2023-05-14T06:53:55.171Z,1.52
2023-05-14T06:56:23.278Z,1.95
2023-05-14T06:58:50.851Z,1.73
2023-05-14T07:01:17.879Z,1.60
2023-05-14T07:03:44.884Z,1.80
2023-05-14T07:06:13.549Z,1.27
2023-05-14T07:08:40.867Z,1.92
2023-05-14T07:11:07.846Z,1.73
2023-05-14T07:13:34.907Z,1.20
2023-05-14T07:16:01.927Z,1.73
2023-05-14T07:18:28.971Z,1.70
2023-05-14T07:20:56.025Z,1.70
2023-05-14T07:23:23.105Z,1.50
2023-05-14T07:25:50.162Z,1.45
2023-05-14T07:28:17.220Z,2.67
2023-05-14T07:30:44.241Z,1.42
2023-05-14T07:33:11.324Z,1.60
2023-05-14T07:35:38.419Z,1.63
2023-05-14T07:38:06.347Z,1.50
2023-05-14T07:40:33.503Z,1.20
2023-05-14T07:43:00.628Z,1.92
2023-05-14T07:45:27.668Z,1.23
2023-05-14T07:47:54.844Z,1.65
2023-05-14T07:50:23.096Z,1.38
2023-05-14T07:52:50.279Z,1.60
2023-05-14T07:55:17.280Z,1.60
2023-05-14T07:57:44.309Z,1.30
2023-05-14T08:00:12.006Z,1.02
2023-05-14T08:02:42.700Z,1.40
2023-05-14T08:05:10.570Z,1.90
2023-05-14T08:07:37.571Z,1.60
2023-05-14T08:10:04.838Z,1.70
2023-05-14T08:12:31.995Z,1.55
2023-05-14T08:14:59.025Z,1.55
2023-05-14T08:17:26.222Z,1.20
2023-05-14T08:19:53.936Z,1.20
2023-05-14T08:22:21.821Z,1.65
2023-05-14T08:24:48.915Z,1.55
2023-05-14T08:27:16.751Z,1.42
2023-05-14T08:29:43.738Z,1.20
2023-05-14T08:32:22.020Z,1.15
2023-05-14T08:34:50.233Z,1.15
2023-05-14T08:37:17.304Z,1.48
2023-05-14T08:39:44.443Z,2.40
2023-05-14T08:42:13.924Z,1.80
2023-05-14T08:44:57.066Z,1.75
2023-05-14T08:47:24.953Z,0.90
2023-05-14T08:50:00.649Z,1.65
2023-05-14T08:52:28.070Z,1.40
2023-05-14T08:54:57.306Z,1.83
2023-05-14T08:57:26.682Z,1.83
2023-05-14T08:59:54.793Z,1.40
2023-05-14T09:02:25.201Z,1.40
2023-05-14T09:05:00.318Z,1.30
2023-05-14T09:07:27.814Z,1.25
2023-05-14T09:09:55.694Z,1.88
2023-05-14T09:12:23.008Z,1.33
2023-05-14T09:14:50.809Z,1.88
2023-05-14T09:17:18.788Z,1.33
2023-05-14T09:19:49.688Z,1.45
2023-05-14T09:22:18.258Z,1.27
2023-05-14T09:24:46.484Z,1.55
2023-05-14T09:27:22.341Z,1.85
2023-05-14T09:29:49.472Z,1.77
2023-05-14T09:32:16.508Z,1.70
2023-05-14T09:34:43.605Z,1.92
2023-05-14T09:37:10.642Z,1.40
2023-05-14T09:39:40.074Z,1.33
2023-05-14T09:42:07.409Z,1.92
2023-05-14T09:44:36.340Z,1.65
2023-05-14T09:47:04.365Z,1.27
2023-05-14T09:49:31.434Z,1.35
2023-05-14T09:51:58.428Z,1.30
2023-05-14T09:54:27.434Z,1.13
2023-05-14T09:56:55.743Z,1.23
2023-05-14T09:59:23.017Z,1.10
2023-05-14T10:01:51.446Z,1.00
2023-05-14T10:04:19.068Z,1.98
2023-05-14T10:06:51.806Z,1.20
2023-05-14T10:09:23.281Z,1.10
2023-05-14T10:11:56.518Z,0.82
2023-05-14T10:14:39.531Z,1.02
2023-05-14T10:17:07.803Z,1.02
2023-05-14T10:19:36.097Z,0.90
2023-05-14T10:22:09.647Z,0.80
2023-05-14T10:24:38.916Z,0.80
2023-05-14T10:27:06.235Z,1.00
2023-05-14T10:29:37.981Z,1.30
2023-05-14T10:32:07.508Z,0.90
2023-05-14T10:34:44.281Z,0.70
2023-05-14T10:37:23.112Z,1.10
2023-05-14T10:39:57.718Z,1.00
2023-05-14T10:42:29.003Z,0.95
2023-05-14T10:44:58.937Z,1.17
2023-05-14T10:47:30.042Z,0.82
2023-05-14T10:49:59.576Z,1.02
2023-05-14T10:52:26.906Z,0.80
2023-05-14T10:54:57.831Z,0.75
2023-05-14T10:57:27.688Z,0.70
2023-05-14T10:59:56.623Z,0.65
2023-05-14T11:02:31.968Z,0.60
2023-05-14T11:05:03.961Z,0.77
2023-05-14T11:07:32.561Z,0.80
2023-05-14T11:10:08.119Z,0.77
2023-05-14T11:12:36.826Z,0.70
2023-05-14T11:15:11.896Z,0.63
2023-05-14T11:17:41.006Z,0.57
2023-05-14T11:20:09.085Z,0.50
2023-05-14T11:22:37.797Z,0.77
2023-05-14T11:25:06.382Z,0.60
2023-05-14T11:27:38.999Z,0.50
2023-05-14T11:30:12.915Z,0.40
2023-05-14T11:32:40.901Z,0.50
2023-05-14T11:35:08.405Z,0.50
2023-05-14T11:37:35.773Z,0.38
2023-05-14T11:40:02.911Z,0.40
2023-05-14T11:42:29.964Z,0.63
2023-05-14T11:44:57.300Z,0.50
2023-05-14T11:47:24.320Z,0.52
2023-05-14T11:49:51.351Z,0.60
2023-05-14T11:52:22.083Z,0.60
2023-05-14T11:54:50.841Z,0.85
2023-05-14T11:57:22.480Z,1.15
2023-05-14T11:59:55.765Z,1.10
2023-05-14T12:02:23.142Z,1.10
2023-05-14T12:04:54.138Z,1.20
2023-05-14T12:07:21.244Z,1.88
2023-05-14T12:09:49.648Z,1.20
2023-05-14T12:12:22.552Z,1.42
2023-05-14T12:14:50.670Z,0.95
2023-05-14T12:17:18.643Z,1.00
2023-05-14T12:19:47.658Z,0.80
2023-05-14T12:22:17.719Z,1.10
2023-05-14T12:24:53.592Z,1.10
2023-05-14T12:27:24.207Z,0.80
2023-05-14T12:30:19.165Z,0.80
2023-05-14T12:32:51.744Z,0.90
2023-05-14T12:35:19.351Z,1.10
2023-05-14T12:37:46.464Z,1.15
2023-05-14T12:40:13.730Z,1.10
2023-05-14T12:42:40.946Z,1.30
2023-05-14T12:45:08.840Z,1.05
2023-05-14T12:47:37.316Z,1.27
2023-05-14T12:50:04.963Z,1.10
2023-05-14T12:55:02.216Z,1.20
2023-05-14T12:57:30.344Z,0.90
2023-05-14T12:59:57.689Z,1.30
2023-05-14T13:02:24.733Z,1.27
2023-05-14T13:04:51.787Z,1.30
2023-05-14T13:07:18.875Z,1.90
2023-05-14T13:09:45.875Z,1.75
2023-05-14T13:12:12.899Z,1.30
2023-05-14T13:14:40.093Z,1.30
2023-05-14T13:17:08.203Z,1.52
2023-05-14T13:19:35.370Z,1.60
2023-05-14T13:22:02.453Z,1.52
2023-05-14T13:24:29.530Z,1.42
2023-05-14T13:26:56.718Z,1.80
2023-05-14T13:29:24.565Z,1.90
2023-05-14T13:31:51.810Z,1.92
2023-05-14T13:34:19.113Z,1.75
2023-05-14T13:36:47.252Z,1.75
2023-05-14T13:39:14.622Z,1.23
2023-05-14T13:41:41.957Z,1.20
2023-05-14T13:44:09.012Z,1.60
2023-05-14T13:46:36.105Z,1.40
2023-05-14T13:49:03.115Z,1.52
2023-05-14T13:51:30.164Z,1.00
2023-05-14T13:53:57.146Z,1.20
2023-05-14T13:56:24.193Z,1.38
2023-05-14T13:58:51.254Z,1.23
2023-05-14T14:01:18.364Z,1.38
2023-05-14T14:03:45.419Z,0.90
2023-05-14T14:06:12.603Z,1.15
2023-05-14T14:08:39.583Z,1.95
2023-05-14T14:11:06.622Z,0.88
2023-05-14T14:13:33.690Z,0.52
2023-05-14T14:16:03.169Z,0.60
2023-05-14T14:18:30.227Z,0.30
2023-05-14T14:20:57.584Z,0.40
2023-05-14T14:23:24.568Z,0.30
2023-05-14T14:25:51.734Z,0.30
2023-05-14T14:28:19.163Z,0.60
2023-05-14T14:30:46.264Z,0.38
2023-05-14T14:33:13.260Z,0.40
2023-05-14T14:35:40.593Z,0.40
2023-05-14T14:38:07.579Z,0.50
2023-05-14T14:40:35.194Z,0.50
2023-05-14T14:43:02.314Z,0.50
2023-05-14T14:45:29.369Z,0.70
2023-05-14T14:48:37.547Z,0.65
2023-05-14T14:51:06.527Z,2.08
2023-05-14T14:53:34.479Z,1.17
2023-05-14T14:56:01.806Z,1.67
2023-05-14T14:58:28.999Z,1.90
2023-05-14T15:00:57.380Z,1.00
2023-05-14T15:03:26.012Z,0.90
2023-05-14T15:05:53.879Z,0.77
2023-05-14T15:08:24.370Z,1.98
2023-05-14T15:10:51.449Z,0.80
2023-05-14T15:13:18.901Z,0.80
2023-05-14T15:15:46.036Z,1.02
2023-05-14T15:18:13.280Z,1.02
2023-05-14T15:20:40.488Z,0.65
2023-05-14T15:23:07.754Z,1.20
2023-05-14T15:25:34.826Z,1.60
2023-05-14T15:28:01.902Z,1.58
2023-05-14T15:30:29.008Z,3.50
2023-05-14T15:32:56.157Z,1.17
2023-05-14T15:35:23.453Z,1.50
2023-05-14T15:37:50.751Z,2.78
2023-05-14T15:40:19.925Z,1.50
2023-05-14T15:42:47.070Z,1.85
2023-05-14T15:45:14.517Z,2.13
2023-05-14T15:47:42.122Z,1.48
2023-05-14T15:50:09.564Z,1.55
2023-05-14T15:52:37.019Z,1.30
2023-05-14T15:55:06.202Z,1.52
2023-05-14T15:57:33.546Z,1.50
2023-05-14T16:00:00.565Z,1.40
2023-05-14T16:02:30.547Z,1.17
2023-05-14T16:04:57.717Z,2.10
2023-05-14T16:07:24.749Z,1.20
2023-05-14T16:09:51.907Z,1.83
2023-05-14T16:12:18.980Z,1.50
2023-05-14T16:14:46.576Z,1.40
2023-05-14T16:17:13.801Z,1.95
2023-05-14T16:19:41.066Z,1.20
2023-05-14T16:22:08.110Z,1.48
2023-05-14T16:24:35.178Z,1.40
2023-05-14T16:27:02.293Z,1.55
2023-05-14T16:29:29.400Z,1.30
2023-05-14T16:31:56.451Z,1.42
2023-05-14T16:34:23.486Z,1.60
2023-05-14T16:36:50.658Z,1.73
2023-05-14T16:39:17.742Z,1.55
2023-05-14T16:41:44.723Z,1.42
2023-05-14T16:44:11.768Z,1.45
2023-05-14T16:46:38.961Z,1.50
2023-05-14T16:49:06.201Z,1.73
2023-05-14T16:51:33.712Z,1.30
2023-05-14T16:54:00.905Z,1.10
2023-05-14T16:56:27.966Z,1.10
2023-05-14T16:58:55.109Z,1.10
2023-05-14T17:01:22.194Z,1.20
2023-05-14T17:03:49.261Z,1.52
2023-05-14T17:06:16.305Z,1.20
2023-05-14T17:08:43.386Z,1.50
2023-05-14T17:11:10.446Z,1.35
2023-05-14T17:13:37.503Z,2.15
2023-05-14T17:16:04.681Z,1.40
2023-05-14T17:18:32.727Z,1.40
2023-05-14T17:20:59.838Z,2.45
2023-05-14T17:23:26.900Z,1.63
2023-05-14T17:25:56.627Z,1.10
2023-05-14T17:28:24.715Z,1.48
2023-05-14T17:30:52.180Z,1.85
2023-05-14T17:33:19.238Z,2.13
2023-05-14T17:35:46.309Z,1.80
2023-05-14T17:38:13.417Z,1.45
2023-05-14T17:40:40.993Z,3.00
2023-05-14T17:43:08.659Z,1.35
2023-05-14T17:45:46.242Z,1.77
2023-05-14T17:48:19.906Z,1.48
2023-05-14T17:50:46.967Z,1.73
2023-05-14T17:53:14.154Z,1.90
2023-05-14T17:55:43.718Z,1.60
2023-05-14T17:58:15.606Z,1.85
2023-05-14T18:00:43.705Z,1.55
2023-05-14T18:03:11.585Z,1.35
2023-05-14T18:05:38.998Z,2.10
2023-05-14T18:08:06.018Z,1.73
2023-05-14T18:10:33.104Z,1.90
2023-05-14T18:13:00.260Z,1.73
2023-05-14T18:15:27.547Z,1.40
2023-05-14T18:17:54.874Z,1.60
2023-05-14T18:20:22.175Z,1.42
2023-05-14T18:22:50.688Z,1.10
2023-05-14T18:25:18.012Z,1.02
2023-05-14T18:27:45.732Z,2.08
2023-05-14T18:30:14.718Z,1.60
2023-05-14T18:32:43.989Z,1.00
2023-05-14T18:35:12.023Z,1.00
2023-05-14T18:37:41.200Z,1.08
2023-05-14T18:40:09.228Z,1.15
2023-05-14T18:42:36.378Z,1.73
2023-05-14T18:45:04.201Z,1.45
2023-05-14T18:47:31.689Z,1.30
2023-05-14T18:50:01.770Z,1.20
2023-05-14T18:52:29.234Z,1.67
2023-05-14T18:54:56.377Z,2.17
2023-05-14T18:57:23.804Z,2.28
2023-05-14T18:59:50.840Z,1.58
2023-05-14T19:02:17.940Z,1.33
2023-05-14T19:04:52.432Z,1.30
2023-05-14T19:07:20.907Z,1.50
2023-05-14T19:09:48.275Z,1.30
2023-05-14T19:12:15.479Z,1.33
2023-05-14T19:14:42.472Z,1.30
2023-05-14T19:17:09.603Z,1.17
2023-05-14T19:19:37.306Z,1.73
2023-05-14T19:22:04.403Z,2.38
2023-05-14T19:24:31.427Z,1.52
2023-05-14T19:26:58.516Z,1.55
2023-05-14T19:29:25.531Z,1.15
2023-05-14T19:31:52.705Z,1.42
2023-05-14T19:34:19.810Z,1.30
2023-05-14T19:36:46.861Z,1.38
2023-05-14T19:39:13.863Z,1.17
2023-05-14T19:41:40.894Z,1.60
2023-05-14T19:44:07.946Z,1.67
2023-05-14T19:46:35.173Z,1.92
2023-05-14T19:49:02.208Z,1.20
2023-05-14T19:51:29.258Z,1.50
2023-05-14T19:53:56.331Z,1.25
2023-05-14T19:56:24.761Z,1.08
2023-05-14T19:58:53.512Z,1.63
2023-05-14T20:01:22.324Z,1.10
2023-05-14T20:03:49.334Z,1.58
2023-05-14T20:06:17.522Z,1.23
2023-05-14T20:08:47.502Z,1.17
2023-05-14T20:11:15.756Z,1.30
2023-05-14T20:13:42.822Z,1.10
2023-05-14T20:16:09.897Z,1.15
2023-05-14T20:18:37.109Z,1.35
2023-05-14T20:21:04.290Z,1.30
2023-05-14T20:23:32.359Z,0.90
2023-05-14T20:26:01.849Z,1.30
2023-05-14T20:28:29.010Z,0.77
2023-05-14T20:30:58.898Z,1.30
2023-05-14T20:33:27.144Z,0.98
2023-05-14T20:35:54.142Z,1.13
2023-05-14T20:38:21.806Z,0.73
2023-05-14T20:40:49.038Z,1.00
2023-05-14T20:43:16.270Z,1.02
2023-05-14T20:45:43.370Z,1.17
2023-05-14T20:48:12.231Z,1.40
2023-05-14T20:50:39.356Z,1.20
2023-05-14T20:53:06.443Z,1.17
2023-05-14T20:55:33.675Z,0.90
2023-05-14T20:58:00.732Z,1.30
2023-05-14T21:00:27.806Z,1.08
2023-05-14T21:02:54.989Z,1.05
2023-05-14T21:05:22.234Z,0.80
2023-05-14T21:07:49.279Z,1.13
2023-05-14T21:10:17.656Z,1.20
2023-05-14T21:12:44.943Z,1.10
2023-05-14T21:15:12.364Z,1.15
2023-05-14T21:17:39.505Z,1.10
2023-05-14T21:20:07.190Z,1.23
2023-05-14T21:22:34.272Z,1.02
2023-05-14T21:25:01.304Z,1.00
2023-05-14T21:27:28.565Z,1.23
2023-05-14T21:29:55.638Z,1.30
2023-05-14T21:32:22.631Z,1.40
2023-05-14T21:34:49.747Z,1.58
2023-05-14T21:37:16.935Z,0.93
2023-05-14T21:39:43.970Z,1.10
2023-05-14T21:42:11.079Z,0.90
2023-05-14T21:44:38.203Z,0.95
2023-05-14T21:47:05.724Z,1.02
2023-05-14T21:49:32.770Z,1.10
2023-05-14T21:52:00.355Z,1.45
2023-05-14T21:54:27.416Z,1.08
2023-05-14T21:56:54.556Z,1.20
2023-05-14T21:59:21.789Z,1.33
2023-05-14T22:04:18.711Z,1.30
2023-05-14T22:06:46.112Z,1.05
2023-05-14T22:09:13.198Z,1.08
2023-05-14T22:11:40.260Z,1.25
2023-05-14T22:14:07.277Z,0.85
2023-05-14T22:16:34.400Z,0.80
2023-05-14T22:19:01.481Z,0.90
2023-05-14T22:21:28.905Z,1.00
2023-05-14T22:23:55.954Z,1.10
2023-05-14T22:26:22.935Z,0.90
2023-05-14T22:28:50.114Z,1.25
2023-05-14T22:31:17.165Z,1.17
2023-05-14T22:33:45.791Z,0.73
2023-05-14T22:36:12.927Z,0.73
2023-05-14T22:38:41.308Z,1.23
2023-05-14T22:41:08.290Z,0.82
2023-05-14T22:43:35.340Z,1.13
2023-05-14T22:46:02.411Z,0.98
2023-05-14T22:48:29.436Z,1.02
2023-05-14T22:50:56.431Z,0.68
2023-05-14T22:53:25.070Z,1.10
2023-05-14T22:55:52.337Z,0.85
2023-05-14T22:58:19.440Z,0.50
2023-05-14T23:00:46.514Z,0.55
2023-05-14T23:03:13.546Z,0.70
2023-05-14T23:05:40.568Z,0.90
2023-05-14T23:08:07.577Z,0.82
2023-05-14T23:10:35.645Z,0.80
2023-05-14T23:13:03.591Z,1.20
2023-05-14T23:15:30.676Z,0.90
2023-05-14T23:17:57.789Z,0.95
2023-05-14T23:20:24.861Z,1.20
2023-05-14T23:22:52.380Z,1.20
2023-05-14T23:25:19.583Z,1.58
2023-05-14T23:27:46.894Z,1.10
2023-05-14T23:30:14.031Z,1.10
2023-05-14T23:32:41.084Z,1.10
2023-05-14T23:35:08.662Z,1.02
2023-05-14T23:37:41.680Z,1.00
2023-05-14T23:40:09.678Z,1.00
2023-05-14T23:42:36.641Z,1.08
2023-05-14T23:45:04.058Z,1.17
2023-05-14T23:47:31.365Z,1.20
2023-05-14T23:49:58.435Z,1.55
2023-05-14T23:52:25.464Z,1.05
2023-05-14T23:54:52.454Z,1.02
2023-05-14T23:57:19.563Z,1.27
2023-05-14T23:59:46.596Z,0.95
